createdAt,value
2017-09-21T00:00:16.525Z,15.47
2017-09-21T00:02:43.978Z,15.47
2017-09-21T00:05:12.379Z,14.07
2017-09-21T00:07:39.821Z,16.60
2017-09-21T00:10:07.257Z,13.97
2017-09-21T00:12:34.763Z,12.00
2017-09-21T00:15:02.197Z,11.30
2017-09-21T00:17:30.115Z,12.17
2017-09-21T00:19:57.612Z,13.67
2017-09-21T00:22:25.126Z,16.20
2017-09-21T00:24:52.563Z,12.93
2017-09-21T00:27:20.423Z,14.60
2017-09-21T00:29:48.254Z,12.57
2017-09-21T00:32:15.717Z,13.57
2017-09-21T00:34:43.175Z,13.90
2017-09-21T00:37:10.620Z,12.57
2017-09-21T00:39:38.097Z,12.60
2017-09-21T00:42:05.591Z,13.57
2017-09-21T00:44:33.031Z,15.10
2017-09-21T00:47:01.482Z,12.67
2017-09-21T00:49:28.930Z,13.90
2017-09-21T00:51:56.361Z,11.00
2017-09-21T00:54:24.053Z,12.77
2017-09-21T00:56:51.499Z,15.17
2017-09-21T00:59:19.054Z,11.77
2017-09-21T01:01:47.066Z,13.03
2017-09-21T01:04:15.059Z,15.57
2017-09-21T01:06:42.506Z,13.53
2017-09-21T01:09:10.136Z,14.97
2017-09-21T01:11:38.044Z,13.53
2017-09-21T01:14:05.715Z,11.07
2017-09-21T01:16:33.397Z,15.67
2017-09-21T01:19:01.614Z,15.10
2017-09-21T01:21:29.056Z,16.03
2017-09-21T01:23:56.730Z,16.90
2017-09-21T01:26:24.162Z,14.50
2017-09-21T01:28:51.619Z,12.60
2017-09-21T01:31:19.090Z,14.67
2017-09-21T01:33:46.522Z,14.33
2017-09-21T01:36:14.174Z,11.93
2017-09-21T01:38:41.624Z,13.50
2017-09-21T01:41:09.846Z,13.00
2017-09-21T01:43:37.324Z,14.53
2017-09-21T01:46:04.755Z,12.73
2017-09-21T01:48:34.923Z,12.47
2017-09-21T01:51:02.391Z,14.30
2017-09-21T01:53:29.838Z,27.23
2017-09-21T01:55:57.321Z,24.50
2017-09-21T01:58:24.737Z,20.00
2017-09-21T02:00:52.174Z,17.97
2017-09-21T02:03:19.667Z,15.13
2017-09-21T02:05:47.111Z,17.57
2017-09-21T02:08:14.531Z,16.53
2017-09-21T02:10:42.047Z,14.07
2017-09-21T02:13:09.477Z,14.80
2017-09-21T02:15:37.377Z,16.20
2017-09-21T02:18:05.024Z,15.50
2017-09-21T02:20:32.863Z,14.73
2017-09-21T02:23:00.300Z,15.00
2017-09-21T02:25:27.783Z,17.50
2017-09-21T02:27:55.223Z,15.10
2017-09-21T02:30:22.646Z,15.67
2017-09-21T02:32:50.126Z,18.43
2017-09-21T02:35:17.607Z,15.87
2017-09-21T02:37:45.062Z,16.73
2017-09-21T02:40:12.517Z,19.73
2017-09-21T02:42:39.942Z,15.90
2017-09-21T02:45:07.778Z,16.80
2017-09-21T02:47:35.318Z,16.70
2017-09-21T02:50:02.768Z,13.93
2017-09-21T02:52:30.202Z,18.77
2017-09-21T02:54:58.244Z,14.87
2017-09-21T02:57:25.685Z,16.00
2017-09-21T02:59:53.108Z,17.37
2017-09-21T03:02:21.183Z,18.23
2017-09-21T03:04:48.680Z,16.47
2017-09-21T03:07:16.099Z,16.33
2017-09-21T03:09:43.563Z,23.33
2017-09-21T03:12:10.986Z,17.90
2017-09-21T03:14:38.469Z,16.73
2017-09-21T03:17:06.299Z,14.73
2017-09-21T03:19:33.746Z,19.03
2017-09-21T03:22:01.222Z,15.03
2017-09-21T03:24:28.656Z,18.17
2017-09-21T03:26:56.105Z,15.93
2017-09-21T03:29:24.119Z,17.10
2017-09-21T03:31:51.556Z,16.37
2017-09-21T03:34:19.070Z,17.53
2017-09-21T03:36:46.499Z,15.80
2017-09-21T03:39:14.060Z,16.47
2017-09-21T03:41:41.530Z,16.83
2017-09-21T03:44:09.002Z,16.33
2017-09-21T03:46:36.461Z,18.50
2017-09-21T03:49:03.888Z,16.30
2017-09-21T03:51:31.325Z,18.90
2017-09-21T03:53:59.284Z,17.53
2017-09-21T03:56:26.716Z,16.77
2017-09-21T03:58:54.153Z,18.93
2017-09-21T04:01:21.663Z,16.30
2017-09-21T04:03:49.115Z,13.57
2017-09-21T04:06:16.561Z,16.27
2017-09-21T04:08:44.036Z,16.63
2017-09-21T04:11:11.585Z,20.93
2017-09-21T04:13:39.023Z,19.40
2017-09-21T04:16:06.464Z,15.80
2017-09-21T04:18:33.906Z,14.33
2017-09-21T04:21:01.361Z,13.13
2017-09-21T04:23:28.825Z,16.40
2017-09-21T04:25:56.648Z,17.10
2017-09-21T04:28:24.440Z,16.00
2017-09-21T04:30:51.899Z,16.50
2017-09-21T04:33:19.386Z,16.50
2017-09-21T04:35:46.844Z,13.43
2017-09-21T04:38:14.355Z,17.80
2017-09-21T04:40:41.829Z,15.90
2017-09-21T04:43:09.310Z,19.63
2017-09-21T04:45:36.775Z,13.40
2017-09-21T04:48:04.444Z,15.17
2017-09-21T04:50:32.030Z,15.57
2017-09-21T04:52:59.679Z,15.90
2017-09-21T04:55:27.260Z,18.87
2017-09-21T04:57:54.805Z,14.17
2017-09-21T05:00:22.359Z,16.20
2017-09-21T05:02:49.798Z,17.43
2017-09-21T05:05:17.304Z,14.40
2017-09-21T05:07:44.768Z,18.73
2017-09-21T05:10:12.524Z,17.10
2017-09-21T05:12:39.958Z,16.13
2017-09-21T05:15:07.411Z,14.77
2017-09-21T05:17:34.904Z,15.67
2017-09-21T05:20:02.368Z,14.80
2017-09-21T05:22:29.817Z,16.17
2017-09-21T05:24:57.286Z,14.43
2017-09-21T05:27:24.739Z,15.60
2017-09-21T05:29:53.213Z,15.97
2017-09-21T05:32:20.664Z,16.20
2017-09-21T05:34:48.242Z,13.20
2017-09-21T05:37:15.672Z,17.30
2017-09-21T05:39:43.532Z,14.13
2017-09-21T05:42:11.587Z,16.03
2017-09-21T05:44:39.024Z,15.10
2017-09-21T05:47:06.894Z,13.33
2017-09-21T05:49:34.339Z,16.57
2017-09-21T05:52:01.767Z,15.33
2017-09-21T05:54:30.409Z,16.27
2017-09-21T05:56:57.858Z,15.80
2017-09-21T05:59:25.296Z,19.10
2017-09-21T06:01:52.897Z,13.80
2017-09-21T06:04:20.334Z,12.00
2017-09-21T06:06:47.885Z,11.80
2017-09-21T06:09:15.332Z,12.10
2017-09-21T06:11:42.929Z,11.20
2017-09-21T06:14:10.407Z,13.67
2017-09-21T06:16:37.892Z,15.57
2017-09-21T06:19:05.433Z,18.03
2017-09-21T06:21:32.890Z,11.20
2017-09-21T06:24:00.317Z,13.43
2017-09-21T06:26:27.744Z,14.03
2017-09-21T06:28:55.182Z,12.40
2017-09-21T06:31:22.752Z,14.70
2017-09-21T06:33:50.182Z,12.83
2017-09-21T06:36:17.610Z,12.03
2017-09-21T06:38:45.467Z,13.40
2017-09-21T06:41:12.904Z,15.90
2017-09-21T06:43:40.576Z,15.20
2017-09-21T06:46:08.797Z,27.53
2017-09-21T06:48:36.240Z,21.70
2017-09-21T06:51:04.084Z,18.70
2017-09-21T06:53:31.756Z,12.87
2017-09-21T06:55:59.294Z,14.67
2017-09-21T06:58:26.727Z,16.90
2017-09-21T07:00:55.109Z,15.10
2017-09-21T07:03:22.542Z,15.70
2017-09-21T07:05:49.991Z,17.10
2017-09-21T07:08:17.457Z,18.40
2017-09-21T07:10:44.911Z,17.63
2017-09-21T07:13:12.436Z,16.73
2017-09-21T07:15:40.738Z,20.80
2017-09-21T07:18:08.187Z,26.73
2017-09-21T07:20:35.692Z,31.50
2017-09-21T07:23:03.208Z,31.30
2017-09-21T07:25:30.649Z,33.00
2017-09-21T07:27:58.165Z,33.77
2017-09-21T07:30:25.662Z,31.67
2017-09-21T07:32:53.507Z,26.47
2017-09-21T07:35:20.944Z,32.37
2017-09-21T07:37:48.423Z,33.00
2017-09-21T07:40:15.976Z,32.40
2017-09-21T07:42:43.453Z,35.63
2017-09-21T07:45:10.935Z,32.33
2017-09-21T07:47:38.795Z,38.60
2017-09-21T07:50:06.263Z,33.17
2017-09-21T07:52:34.122Z,40.63
2017-09-21T07:55:01.584Z,44.97
2017-09-21T07:57:29.039Z,34.40
2017-09-21T07:59:56.609Z,37.67
2017-09-21T08:02:24.040Z,35.73
2017-09-21T08:04:51.470Z,39.70
2017-09-21T08:07:19.880Z,35.93
2017-09-21T08:09:47.368Z,38.30
2017-09-21T08:12:14.784Z,41.60
2017-09-21T08:14:42.469Z,40.00
2017-09-21T08:17:09.889Z,43.07
2017-09-21T08:19:37.819Z,40.50
2017-09-21T08:22:05.298Z,48.83
2017-09-21T08:24:32.923Z,36.37
2017-09-21T08:27:00.606Z,45.87
2017-09-21T08:29:29.431Z,47.03
2017-09-21T08:31:56.974Z,47.83
2017-09-21T08:34:24.441Z,44.80
2017-09-21T08:36:51.936Z,44.53
2017-09-21T08:39:19.870Z,40.57
2017-09-21T08:41:47.335Z,42.60
2017-09-21T08:44:15.841Z,40.23
2017-09-21T08:46:43.275Z,42.27
2017-09-21T08:49:10.720Z,47.00
2017-09-21T08:51:38.330Z,46.30
2017-09-21T08:54:05.855Z,47.03
2017-09-21T08:56:33.404Z,47.70
2017-09-21T08:59:01.017Z,48.80
2017-09-21T09:01:28.497Z,47.03
2017-09-21T09:03:56.003Z,43.27
2017-09-21T09:06:23.768Z,49.23
2017-09-21T09:08:51.215Z,47.23
2017-09-21T09:11:19.149Z,44.60
2017-09-21T09:13:46.677Z,49.17
2017-09-21T09:16:14.168Z,43.77
2017-09-21T09:18:41.599Z,44.83
2017-09-21T09:21:09.231Z,47.50
2017-09-21T09:23:37.078Z,43.60
2017-09-21T09:26:04.503Z,50.60
2017-09-21T09:28:32.187Z,54.37
2017-09-21T09:30:59.661Z,48.53
2017-09-21T09:33:27.237Z,38.70
2017-09-21T09:35:54.979Z,47.90
2017-09-21T09:38:22.431Z,48.40
2017-09-21T09:40:49.880Z,44.07
2017-09-21T09:43:18.456Z,42.93
2017-09-21T09:45:45.900Z,47.80
2017-09-21T09:48:13.820Z,43.43
2017-09-21T09:50:41.499Z,45.70
2017-09-21T09:53:08.938Z,40.90
2017-09-21T09:55:36.399Z,39.60
2017-09-21T09:58:03.878Z,42.37
2017-09-21T10:00:31.436Z,42.43
2017-09-21T10:02:58.891Z,44.10
2017-09-21T10:05:26.549Z,39.40
2017-09-21T10:07:54.013Z,40.97
2017-09-21T10:10:21.485Z,39.07
2017-09-21T10:12:48.972Z,40.20
2017-09-21T10:15:16.514Z,38.73
2017-09-21T10:17:45.084Z,37.97
2017-09-21T10:20:14.414Z,46.30
2017-09-21T10:22:41.937Z,42.27
2017-09-21T10:25:09.381Z,49.30
2017-09-21T10:27:36.836Z,44.27
2017-09-21T10:30:04.755Z,44.50
2017-09-21T10:32:32.225Z,46.37
2017-09-21T10:34:59.714Z,45.43
2017-09-21T10:37:28.011Z,51.70
2017-09-21T10:39:55.843Z,45.73
2017-09-21T10:42:23.392Z,47.57
2017-09-21T10:44:50.981Z,52.03
2017-09-21T10:47:18.513Z,46.17
2017-09-21T10:49:46.187Z,48.47
2017-09-21T10:52:13.668Z,40.80
2017-09-21T10:54:41.128Z,52.07
2017-09-21T10:57:08.733Z,54.43
2017-09-21T10:59:36.566Z,51.97
2017-09-21T11:02:04.013Z,51.67
2017-09-21T11:04:31.540Z,49.60
2017-09-21T11:06:59.405Z,48.70
2017-09-21T11:09:26.873Z,51.03
2017-09-21T11:11:54.801Z,53.80
2017-09-21T11:14:22.237Z,50.57
2017-09-21T11:16:49.692Z,51.23
2017-09-21T11:19:17.383Z,46.63
2017-09-21T11:21:44.823Z,52.23
2017-09-21T11:24:12.294Z,46.20
2017-09-21T11:26:39.967Z,46.50
2017-09-21T11:29:07.425Z,46.50
2017-09-21T11:31:34.971Z,39.67
2017-09-21T11:34:02.462Z,189.20
2017-09-21T11:36:29.911Z,58.53
2017-09-21T11:38:57.377Z,89.67
2017-09-21T11:41:24.854Z,41.40
2017-09-21T11:43:52.303Z,44.90
2017-09-21T11:46:19.780Z,37.67
2017-09-21T11:48:47.559Z,36.67
2017-09-21T11:51:15.008Z,36.43
2017-09-21T11:53:42.465Z,33.37
2017-09-21T11:56:10.142Z,32.33
2017-09-21T11:58:37.594Z,31.90
2017-09-21T12:01:05.055Z,33.13
2017-09-21T12:03:33.235Z,30.30
2017-09-21T12:06:00.711Z,35.67
2017-09-21T12:08:28.594Z,34.77
2017-09-21T12:10:56.097Z,29.03
2017-09-21T12:13:23.594Z,32.90
2017-09-21T12:15:51.028Z,23.00
2017-09-21T12:18:18.528Z,25.07
2017-09-21T12:20:45.994Z,24.67
2017-09-21T12:23:13.533Z,30.47
2017-09-21T12:25:41.023Z,25.63
2017-09-21T12:28:08.461Z,28.47
2017-09-21T12:30:35.904Z,23.83
2017-09-21T12:33:03.486Z,21.40
2017-09-21T12:35:31.072Z,20.40
2017-09-21T12:37:58.520Z,20.93
2017-09-21T12:40:26.007Z,21.17
2017-09-21T12:42:53.540Z,21.30
2017-09-21T12:45:21.022Z,36.27
2017-09-21T12:47:48.580Z,30.63
2017-09-21T12:50:17.285Z,19.17
2017-09-21T12:52:44.746Z,18.23
2017-09-21T12:55:12.501Z,20.37
2017-09-21T12:57:39.955Z,16.40
2017-09-21T13:00:07.416Z,13.50
2017-09-21T13:02:35.066Z,11.47
2017-09-21T13:05:02.531Z,10.13
2017-09-21T13:07:29.970Z,11.90
2017-09-21T13:09:57.447Z,9.30
2017-09-21T13:12:24.889Z,12.93
2017-09-21T13:14:52.340Z,14.13
2017-09-21T13:17:20.223Z,13.67
2017-09-21T13:19:47.643Z,11.50
2017-09-21T13:22:15.107Z,13.73
2017-09-21T13:24:42.604Z,9.50
2017-09-21T13:27:10.065Z,10.50
2017-09-21T13:29:37.495Z,11.13
2017-09-21T13:32:05.232Z,11.10
2017-09-21T13:34:32.830Z,9.20
2017-09-21T13:37:00.282Z,9.53
2017-09-21T13:39:27.775Z,9.53
2017-09-21T13:41:55.292Z,12.23
2017-09-21T13:44:23.129Z,11.90
2017-09-21T13:46:50.680Z,12.10
2017-09-21T13:49:18.363Z,9.63
2017-09-21T13:51:45.847Z,9.67
2017-09-21T13:54:13.290Z,6.23
2017-09-21T13:56:41.149Z,7.27
2017-09-21T13:59:08.921Z,5.10
2017-09-21T14:01:36.514Z,7.53
2017-09-21T14:04:04.217Z,6.97
2017-09-21T14:06:32.127Z,9.33
2017-09-21T14:08:59.649Z,6.53
2017-09-21T14:11:27.130Z,5.43
2017-09-21T14:13:54.979Z,7.03
2017-09-21T14:16:22.466Z,6.30
2017-09-21T14:18:49.975Z,6.23
2017-09-21T14:21:17.467Z,4.90
2017-09-21T14:23:45.515Z,14.23
2017-09-21T14:26:13.315Z,6.60
2017-09-21T14:28:40.898Z,26.90
2017-09-21T14:31:08.385Z,9.97
2017-09-21T14:33:36.294Z,7.17
2017-09-21T14:36:03.853Z,8.53
2017-09-21T14:38:31.407Z,8.27
2017-09-21T14:40:58.948Z,4.83
2017-09-21T14:43:26.716Z,4.53
2017-09-21T14:45:54.296Z,6.53
2017-09-21T14:48:22.562Z,4.53
2017-09-21T14:50:50.073Z,4.27
2017-09-21T14:53:17.562Z,5.07
2017-09-21T14:55:45.614Z,4.97
2017-09-21T14:58:13.233Z,5.90
2017-09-21T15:00:40.696Z,5.37
2017-09-21T15:03:08.178Z,6.80
2017-09-21T15:05:35.623Z,7.50
2017-09-21T15:08:03.096Z,4.70
2017-09-21T15:10:30.747Z,3.97
2017-09-21T15:12:58.260Z,4.20
2017-09-21T15:15:25.877Z,4.23
2017-09-21T15:17:53.744Z,4.17
2017-09-21T15:20:22.108Z,5.40
2017-09-21T15:22:50.202Z,5.43
2017-09-21T15:25:18.179Z,3.70
2017-09-21T15:27:46.751Z,4.47
2017-09-21T15:30:14.629Z,5.17
2017-09-21T15:32:42.586Z,5.27
2017-09-21T15:35:10.525Z,6.20
2017-09-21T15:37:38.253Z,5.77
2017-09-21T15:40:05.805Z,4.77
2017-09-21T15:42:33.273Z,5.07
2017-09-21T15:45:00.759Z,7.20
2017-09-21T15:47:28.275Z,7.30
2017-09-21T15:49:56.171Z,5.47
2017-09-21T15:52:23.640Z,6.20
2017-09-21T15:54:51.390Z,22.40
2017-09-21T15:57:18.850Z,18.60
2017-09-21T15:59:46.758Z,12.67
2017-09-21T16:02:14.211Z,8.50
2017-09-21T16:04:42.481Z,6.33
2017-09-21T16:07:09.923Z,5.87
2017-09-21T16:09:37.544Z,6.23
2017-09-21T16:12:05.003Z,6.03
2017-09-21T16:14:32.487Z,6.77
2017-09-21T16:16:59.925Z,6.30
2017-09-21T16:19:27.391Z,8.33
2017-09-21T16:21:54.865Z,8.00
2017-09-21T16:24:22.287Z,7.53
2017-09-21T16:26:49.973Z,6.97
2017-09-21T16:29:18.680Z,5.40
2017-09-21T16:31:46.100Z,9.97
2017-09-21T16:34:13.575Z,8.70
2017-09-21T16:36:41.053Z,6.20
2017-09-21T16:39:08.515Z,5.93
2017-09-21T16:41:35.948Z,6.33
2017-09-21T16:44:03.432Z,7.20
2017-09-21T16:46:31.624Z,7.40
2017-09-21T16:48:59.175Z,5.93
2017-09-21T16:51:26.591Z,5.90
2017-09-21T16:53:54.053Z,9.20
2017-09-21T16:56:22.128Z,5.73
2017-09-21T16:58:49.602Z,7.80
2017-09-21T17:01:17.078Z,5.60
2017-09-21T17:03:44.810Z,6.40
2017-09-21T17:06:12.299Z,5.87
2017-09-21T17:08:39.780Z,5.70
2017-09-21T17:11:07.504Z,7.27
2017-09-21T17:13:34.909Z,6.57
2017-09-21T17:16:02.358Z,6.63
2017-09-21T17:18:30.027Z,8.03
2017-09-21T17:20:57.570Z,7.07
2017-09-21T17:23:25.085Z,10.10
2017-09-21T17:25:52.733Z,9.20
2017-09-21T17:28:20.154Z,10.10
2017-09-21T17:30:47.982Z,11.57
2017-09-21T17:33:15.610Z,10.60
2017-09-21T17:35:43.030Z,10.23
2017-09-21T17:38:10.454Z,9.70
2017-09-21T17:40:38.103Z,8.17
2017-09-21T17:43:05.516Z,10.07
2017-09-21T17:45:32.940Z,7.27
2017-09-21T17:48:00.404Z,10.73
2017-09-21T17:50:27.827Z,17.07
2017-09-21T17:52:55.647Z,13.47
2017-09-21T17:55:23.111Z,12.43
2017-09-21T17:57:50.665Z,8.80
2017-09-21T18:00:18.095Z,9.27
2017-09-21T18:02:46.498Z,10.17
2017-09-21T18:05:13.915Z,10.17
2017-09-21T18:07:41.756Z,7.73
2017-09-21T18:10:09.221Z,11.00
2017-09-21T18:12:36.650Z,10.87
2017-09-21T18:15:04.264Z,8.77
2017-09-21T18:17:31.709Z,9.23
2017-09-21T18:19:59.102Z,13.70
2017-09-21T18:22:27.129Z,13.30
2017-09-21T18:24:54.541Z,9.53
2017-09-21T18:30:15.426Z,10.90
2017-09-21T18:32:42.846Z,11.17
2017-09-21T18:35:10.277Z,10.20
2017-09-21T18:37:38.175Z,9.30
2017-09-21T18:40:05.591Z,9.20
2017-09-21T18:42:33.100Z,14.07
2017-09-21T18:45:00.520Z,9.20
2017-09-21T18:47:28.359Z,13.50
2017-09-21T18:49:56.251Z,11.87
2017-09-21T18:52:23.708Z,10.70
2017-09-21T18:54:51.187Z,12.83
2017-09-21T18:57:18.622Z,13.87
2017-09-21T18:59:46.261Z,9.70
2017-09-21T19:02:13.923Z,11.20
2017-09-21T19:04:41.393Z,11.83
2017-09-21T19:07:09.079Z,10.40
2017-09-21T19:09:36.508Z,11.43
2017-09-21T19:12:03.976Z,11.60
2017-09-21T19:14:31.438Z,15.10
2017-09-21T19:16:58.860Z,14.07
2017-09-21T19:19:26.775Z,14.03
2017-09-21T19:21:54.228Z,14.23
2017-09-21T19:24:21.692Z,12.80
2017-09-21T19:26:49.120Z,13.90
2017-09-21T19:29:17.125Z,15.23
2017-09-21T19:31:44.896Z,13.80
2017-09-21T19:34:12.320Z,14.07
2017-09-21T19:36:40.189Z,14.80
2017-09-21T19:39:07.999Z,15.23
2017-09-21T19:41:35.440Z,14.87
2017-09-21T19:44:03.296Z,16.43
2017-09-21T19:46:30.718Z,15.43
2017-09-21T19:48:58.140Z,14.27
2017-09-21T19:51:25.584Z,13.70
2017-09-21T19:53:53.406Z,15.40
2017-09-21T19:56:20.841Z,13.70
2017-09-21T19:58:48.287Z,14.00
2017-09-21T20:01:15.717Z,13.13
2017-09-21T20:03:43.212Z,14.30
2017-09-21T20:06:11.040Z,13.63
2017-09-21T20:08:38.461Z,12.23
2017-09-21T20:11:05.924Z,14.70
2017-09-21T20:13:33.397Z,16.10
2017-09-21T20:16:00.825Z,17.63
2017-09-21T20:18:28.722Z,13.30
2017-09-21T20:20:56.384Z,16.53
2017-09-21T20:23:23.820Z,12.97
2017-09-21T20:25:51.731Z,14.90
2017-09-21T20:28:19.171Z,14.33
2017-09-21T20:30:46.699Z,13.43
2017-09-21T20:33:14.144Z,13.63
2017-09-21T20:35:41.591Z,11.87
2017-09-21T20:38:09.029Z,13.00
2017-09-21T20:40:36.442Z,12.27
2017-09-21T20:43:03.897Z,15.13
2017-09-21T20:45:31.428Z,12.30
2017-09-21T20:47:58.963Z,10.57
2017-09-21T20:50:27.599Z,13.07
2017-09-21T20:52:55.141Z,12.60
2017-09-21T20:55:22.568Z,11.50
2017-09-21T20:57:50.477Z,10.97
2017-09-21T21:00:18.057Z,13.10
2017-09-21T21:02:45.466Z,13.97
2017-09-21T21:05:13.049Z,12.30
2017-09-21T21:07:40.458Z,12.40
2017-09-21T21:10:07.979Z,15.47
2017-09-21T21:12:35.663Z,19.60
2017-09-21T21:15:03.101Z,12.60
2017-09-21T21:17:30.529Z,11.77
2017-09-21T21:19:58.139Z,13.20
2017-09-21T21:22:26.317Z,11.40
2017-09-21T21:24:53.736Z,11.63
2017-09-21T21:27:21.670Z,13.40
2017-09-21T21:29:49.080Z,13.33
2017-09-21T21:32:16.912Z,12.30
2017-09-21T21:34:44.446Z,13.07
2017-09-21T21:37:11.864Z,14.43
2017-09-21T21:39:39.688Z,14.70
2017-09-21T21:42:07.143Z,13.90
2017-09-21T21:44:34.559Z,14.03
2017-09-21T21:47:02.463Z,15.43
2017-09-21T21:49:29.924Z,14.67
2017-09-21T21:51:57.850Z,14.30
2017-09-21T21:54:25.369Z,14.47
2017-09-21T21:56:53.042Z,13.43
2017-09-21T21:59:20.494Z,21.17
2017-09-21T22:01:47.919Z,19.63
2017-09-21T22:04:15.928Z,13.63
2017-09-21T22:06:43.355Z,15.33
2017-09-21T22:09:11.352Z,13.40
2017-09-21T22:11:39.072Z,13.73
2017-09-21T22:14:06.484Z,13.07
2017-09-21T22:16:33.963Z,15.30
2017-09-21T22:19:01.416Z,17.87
2017-09-21T22:21:28.869Z,17.63
2017-09-21T22:23:56.306Z,15.30
2017-09-21T22:26:24.312Z,16.33
2017-09-21T22:28:51.747Z,16.53
2017-09-21T22:31:19.592Z,15.70
2017-09-21T22:33:47.079Z,15.00
2017-09-21T22:36:14.911Z,12.93
2017-09-21T22:38:42.425Z,18.23
2017-09-21T22:41:10.354Z,15.60
2017-09-21T22:43:37.786Z,17.13
2017-09-21T22:46:05.219Z,15.77
2017-09-21T22:48:33.002Z,17.33
2017-09-21T22:51:00.934Z,15.20
2017-09-21T22:53:28.455Z,15.07
2017-09-21T22:55:56.025Z,15.77
2017-09-21T22:58:23.527Z,14.57
2017-09-21T23:00:51.364Z,12.63
2017-09-21T23:03:18.848Z,16.03
2017-09-21T23:05:46.964Z,15.73
2017-09-21T23:08:14.515Z,15.27
2017-09-21T23:10:42.208Z,15.70
2017-09-21T23:13:09.802Z,15.13
2017-09-21T23:15:37.449Z,15.50
2017-09-21T23:18:04.979Z,15.70
2017-09-21T23:20:33.002Z,14.77
2017-09-21T23:23:00.706Z,15.90
2017-09-21T23:25:29.307Z,15.67
2017-09-21T23:27:57.306Z,17.07
2017-09-21T23:30:24.995Z,15.80
2017-09-21T23:32:52.478Z,15.17
2017-09-21T23:35:20.029Z,14.70
2017-09-21T23:37:47.695Z,18.33
2017-09-21T23:40:15.239Z,17.50
2017-09-21T23:42:42.755Z,15.00
2017-09-21T23:45:10.305Z,14.70
2017-09-21T23:47:37.795Z,15.97
2017-09-21T23:50:05.254Z,16.23
2017-09-21T23:52:33.257Z,17.63
2017-09-21T23:55:00.758Z,13.60
2017-09-21T23:57:28.260Z,11.23
2017-09-21T23:59:56.173Z,16.63
